sensor_id;sensor_type;location;lat;lon;timestamp;P1;durP1;ratioP1;P2;durP2;ratioP2
72904;SDS011;61048;52.162;4.516;2023-04-01T00:01:29;10.88;;;2.33;;
72904;SDS011;61048;52.162;4.516;2023-04-01T00:03:58;13.90;;;2.33;;
72904;SDS011;61048;52.162;4.516;2023-04-01T00:06:27;11.25;;;1.75;;
72904;SDS011;61048;52.162;4.516;2023-04-01T00:08:54;9.55;;;2.28;;
72904;SDS011;61048;52.162;4.516;2023-04-01T00:11:22;12.93;;;2.33;;
72904;SDS011;61048;52.162;4.516;2023-04-01T00:13:48;11.18;;;2.17;;
72904;SDS011;61048;52.162;4.516;2023-04-01T00:16:15;12.50;;;2.20;;
72904;SDS011;61048;52.162;4.516;2023-04-01T00:18:42;8.55;;;1.83;;
72904;SDS011;61048;52.162;4.516;2023-04-01T00:21:11;12.40;;;2.55;;
72904;SDS011;61048;52.162;4.516;2023-04-01T00:23:37;9.35;;;1.85;;
72904;SDS011;61048;52.162;4.516;2023-04-01T00:26:04;12.90;;;2.35;;
72904;SDS011;61048;52.162;4.516;2023-04-01T00:28:31;9.98;;;2.20;;
72904;SDS011;61048;52.162;4.516;2023-04-01T00:31:03;10.57;;;2.17;;
72904;SDS011;61048;52.162;4.516;2023-04-01T00:33:31;9.40;;;1.77;;
72904;SDS011;61048;52.162;4.516;2023-04-01T00:36:05;13.55;;;2.30;;
72904;SDS011;61048;52.162;4.516;2023-04-01T00:38:34;13.35;;;2.05;;
72904;SDS011;61048;52.162;4.516;2023-04-01T00:41:01;9.93;;;2.08;;
72904;SDS011;61048;52.162;4.516;2023-04-01T00:43:29;9.10;;;2.25;;
72904;SDS011;61048;52.162;4.516;2023-04-01T00:45:57;9.32;;;2.15;;
72904;SDS011;61048;52.162;4.516;2023-04-01T00:48:24;9.20;;;1.67;;
72904;SDS011;61048;52.162;4.516;2023-04-01T00:50:56;10.13;;;1.80;;
72904;SDS011;61048;52.162;4.516;2023-04-01T00:53:27;8.77;;;1.60;;
72904;SDS011;61048;52.162;4.516;2023-04-01T00:56:00;9.63;;;2.00;;
72904;SDS011;61048;52.162;4.516;2023-04-01T00:58:31;9.93;;;1.52;;
72904;SDS011;61048;52.162;4.516;2023-04-01T01:01:01;10.73;;;2.00;;
72904;SDS011;61048;52.162;4.516;2023-04-01T01:03:28;10.32;;;2.08;;
72904;SDS011;61048;52.162;4.516;2023-04-01T01:06:08;8.82;;;1.63;;
72904;SDS011;61048;52.162;4.516;2023-04-01T01:08:57;7.30;;;1.55;;
72904;SDS011;61048;52.162;4.516;2023-04-01T01:11:43;6.47;;;1.58;;
72904;SDS011;61048;52.162;4.516;2023-04-01T01:14:19;6.68;;;1.55;;
72904;SDS011;61048;52.162;4.516;2023-04-01T01:16:54;10.93;;;1.73;;
72904;SDS011;61048;52.162;4.516;2023-04-01T01:19:34;6.90;;;1.45;;
72904;SDS011;61048;52.162;4.516;2023-04-01T01:22:33;7.63;;;1.33;;
72904;SDS011;61048;52.162;4.516;2023-04-01T01:25:29;6.40;;;1.60;;
72904;SDS011;61048;52.162;4.516;2023-04-01T01:28:11;7.35;;;1.83;;
72904;SDS011;61048;52.162;4.516;2023-04-01T01:30:55;5.10;;;1.10;;
72904;SDS011;61048;52.162;4.516;2023-04-01T01:33:32;10.23;;;1.42;;
72904;SDS011;61048;52.162;4.516;2023-04-01T01:36:11;7.47;;;1.60;;
72904;SDS011;61048;52.162;4.516;2023-04-01T01:38:40;7.13;;;1.30;;
72904;SDS011;61048;52.162;4.516;2023-04-01T01:41:07;6.22;;;1.08;;
72904;SDS011;61048;52.162;4.516;2023-04-01T01:43:36;8.15;;;1.58;;
72904;SDS011;61048;52.162;4.516;2023-04-01T01:46:08;6.18;;;1.50;;
72904;SDS011;61048;52.162;4.516;2023-04-01T01:48:38;7.57;;;1.33;;
72904;SDS011;61048;52.162;4.516;2023-04-01T01:51:07;5.38;;;1.02;;
72904;SDS011;61048;52.162;4.516;2023-04-01T01:53:36;6.78;;;1.38;;
72904;SDS011;61048;52.162;4.516;2023-04-01T01:56:03;4.95;;;1.00;;
72904;SDS011;61048;52.162;4.516;2023-04-01T01:58:30;6.38;;;1.23;;
72904;SDS011;61048;52.162;4.516;2023-04-01T02:01:06;6.80;;;1.40;;
72904;SDS011;61048;52.162;4.516;2023-04-01T02:03:37;4.97;;;1.10;;
72904;SDS011;61048;52.162;4.516;2023-04-01T02:06:07;6.20;;;1.33;;
72904;SDS011;61048;52.162;4.516;2023-04-01T02:08:39;5.70;;;1.50;;
72904;SDS011;61048;52.162;4.516;2023-04-01T02:13:37;5.07;;;0.93;;
72904;SDS011;61048;52.162;4.516;2023-04-01T02:16:10;3.85;;;1.02;;
72904;SDS011;61048;52.162;4.516;2023-04-01T02:18:41;6.78;;;1.30;;
72904;SDS011;61048;52.162;4.516;2023-04-01T02:21:09;6.05;;;1.33;;
72904;SDS011;61048;52.162;4.516;2023-04-01T02:23:39;5.88;;;1.30;;
72904;SDS011;61048;52.162;4.516;2023-04-01T02:26:07;5.43;;;1.13;;
72904;SDS011;61048;52.162;4.516;2023-04-01T02:28:36;5.43;;;1.30;;
72904;SDS011;61048;52.162;4.516;2023-04-01T02:31:05;4.13;;;0.93;;
72904;SDS011;61048;52.162;4.516;2023-04-01T02:33:33;6.88;;;1.23;;
72904;SDS011;61048;52.162;4.516;2023-04-01T02:36:01;6.25;;;1.30;;
72904;SDS011;61048;52.162;4.516;2023-04-01T02:38:28;5.88;;;1.20;;
72904;SDS011;61048;52.162;4.516;2023-04-01T02:40:58;7.15;;;1.70;;
72904;SDS011;61048;52.162;4.516;2023-04-01T02:43:26;4.82;;;1.38;;
72904;SDS011;61048;52.162;4.516;2023-04-01T02:45:54;5.97;;;1.20;;
72904;SDS011;61048;52.162;4.516;2023-04-01T02:48:21;4.50;;;1.10;;
72904;SDS011;61048;52.162;4.516;2023-04-01T02:50:48;4.72;;;1.30;;
72904;SDS011;61048;52.162;4.516;2023-04-01T02:53:15;4.03;;;1.00;;
72904;SDS011;61048;52.162;4.516;2023-04-01T02:55:42;5.03;;;1.27;;
72904;SDS011;61048;52.162;4.516;2023-04-01T02:58:11;3.95;;;1.20;;
72904;SDS011;61048;52.162;4.516;2023-04-01T03:00:38;4.25;;;1.13;;
72904;SDS011;61048;52.162;4.516;2023-04-01T03:03:05;4.35;;;1.08;;
72904;SDS011;61048;52.162;4.516;2023-04-01T03:05:32;3.63;;;1.02;;
72904;SDS011;61048;52.162;4.516;2023-04-01T03:07:58;6.20;;;1.10;;
72904;SDS011;61048;52.162;4.516;2023-04-01T03:10:26;5.03;;;1.05;;
72904;SDS011;61048;52.162;4.516;2023-04-01T03:12:53;3.60;;;1.30;;
72904;SDS011;61048;52.162;4.516;2023-04-01T03:15:21;6.10;;;1.27;;
72904;SDS011;61048;52.162;4.516;2023-04-01T03:17:48;4.95;;;1.10;;
72904;SDS011;61048;52.162;4.516;2023-04-01T03:20:16;5.72;;;1.50;;
72904;SDS011;61048;52.162;4.516;2023-04-01T03:22:43;4.10;;;1.20;;
72904;SDS011;61048;52.162;4.516;2023-04-01T03:25:11;6.00;;;1.27;;
72904;SDS011;61048;52.162;4.516;2023-04-01T03:27:38;4.45;;;1.05;;
72904;SDS011;61048;52.162;4.516;2023-04-01T03:30:06;5.15;;;1.30;;
72904;SDS011;61048;52.162;4.516;2023-04-01T03:32:35;3.45;;;1.35;;
72904;SDS011;61048;52.162;4.516;2023-04-01T03:35:03;4.50;;;1.08;;
72904;SDS011;61048;52.162;4.516;2023-04-01T03:37:30;4.57;;;1.45;;
72904;SDS011;61048;52.162;4.516;2023-04-01T03:39:57;4.10;;;0.98;;
72904;SDS011;61048;52.162;4.516;2023-04-01T03:42:24;5.00;;;1.08;;
72904;SDS011;61048;52.162;4.516;2023-04-01T03:44:51;4.88;;;1.30;;
72904;SDS011;61048;52.162;4.516;2023-04-01T03:47:18;6.10;;;1.60;;
72904;SDS011;61048;52.162;4.516;2023-04-01T03:49:46;6.30;;;1.83;;
72904;SDS011;61048;52.162;4.516;2023-04-01T03:52:13;3.22;;;1.17;;
72904;SDS011;61048;52.162;4.516;2023-04-01T03:54:40;3.80;;;1.45;;
72904;SDS011;61048;52.162;4.516;2023-04-01T03:57:07;4.63;;;1.55;;
72904;SDS011;61048;52.162;4.516;2023-04-01T03:59:34;4.93;;;1.30;;
72904;SDS011;61048;52.162;4.516;2023-04-01T04:02:01;3.72;;;1.38;;
72904;SDS011;61048;52.162;4.516;2023-04-01T04:04:28;3.88;;;1.35;;
72904;SDS011;61048;52.162;4.516;2023-04-01T04:06:56;5.07;;;1.20;;
72904;SDS011;61048;52.162;4.516;2023-04-01T04:09:23;3.97;;;1.20;;
72904;SDS011;61048;52.162;4.516;2023-04-01T04:11:50;6.47;;;1.50;;
72904;SDS011;61048;52.162;4.516;2023-04-01T04:14:17;6.93;;;1.52;;
72904;SDS011;61048;52.162;4.516;2023-04-01T04:16:43;4.20;;;1.58;;
72904;SDS011;61048;52.162;4.516;2023-04-01T04:19:10;4.80;;;1.23;;
72904;SDS011;61048;52.162;4.516;2023-04-01T04:21:37;7.07;;;1.63;;
72904;SDS011;61048;52.162;4.516;2023-04-01T04:24:07;3.90;;;1.20;;
72904;SDS011;61048;52.162;4.516;2023-04-01T04:26:34;4.20;;;1.35;;
72904;SDS011;61048;52.162;4.516;2023-04-01T04:29:02;5.78;;;1.67;;
72904;SDS011;61048;52.162;4.516;2023-04-01T04:31:29;4.32;;;1.50;;
72904;SDS011;61048;52.162;4.516;2023-04-01T04:33:56;4.82;;;1.60;;
72904;SDS011;61048;52.162;4.516;2023-04-01T04:36:24;6.78;;;1.70;;
72904;SDS011;61048;52.162;4.516;2023-04-01T04:38:51;4.93;;;1.55;;
72904;SDS011;61048;52.162;4.516;2023-04-01T04:41:19;4.40;;;1.52;;
72904;SDS011;61048;52.162;4.516;2023-04-01T04:43:50;5.28;;;1.52;;
72904;SDS011;61048;52.162;4.516;2023-04-01T04:46:18;6.55;;;1.75;;
72904;SDS011;61048;52.162;4.516;2023-04-01T04:48:45;4.43;;;1.55;;
72904;SDS011;61048;52.162;4.516;2023-04-01T04:51:13;4.40;;;1.60;;
72904;SDS011;61048;52.162;4.516;2023-04-01T04:53:41;3.92;;;1.40;;
72904;SDS011;61048;52.162;4.516;2023-04-01T04:56:09;4.63;;;2.40;;
72904;SDS011;61048;52.162;4.516;2023-04-01T04:58:37;6.03;;;1.67;;
72904;SDS011;61048;52.162;4.516;2023-04-01T05:01:05;3.95;;;1.42;;
72904;SDS011;61048;52.162;4.516;2023-04-01T05:03:33;4.47;;;1.40;;
72904;SDS011;61048;52.162;4.516;2023-04-01T05:06:00;4.63;;;1.73;;
72904;SDS011;61048;52.162;4.516;2023-04-01T05:08:27;3.47;;;1.55;;
72904;SDS011;61048;52.162;4.516;2023-04-01T05:10:54;3.67;;;1.50;;
72904;SDS011;61048;52.162;4.516;2023-04-01T05:13:21;3.92;;;1.40;;
72904;SDS011;61048;52.162;4.516;2023-04-01T05:15:49;5.03;;;1.50;;
72904;SDS011;61048;52.162;4.516;2023-04-01T05:18:16;5.50;;;1.50;;
72904;SDS011;61048;52.162;4.516;2023-04-01T05:20:47;4.82;;;1.67;;
72904;SDS011;61048;52.162;4.516;2023-04-01T05:23:14;5.28;;;1.45;;
72904;SDS011;61048;52.162;4.516;2023-04-01T05:25:41;4.07;;;1.60;;
72904;SDS011;61048;52.162;4.516;2023-04-01T05:28:08;5.40;;;1.67;;
72904;SDS011;61048;52.162;4.516;2023-04-01T05:30:35;5.55;;;1.58;;
72904;SDS011;61048;52.162;4.516;2023-04-01T05:33:03;4.85;;;1.65;;
72904;SDS011;61048;52.162;4.516;2023-04-01T05:35:30;2.80;;;1.00;;
72904;SDS011;61048;52.162;4.516;2023-04-01T05:37:57;5.07;;;1.40;;
72904;SDS011;61048;52.162;4.516;2023-04-01T05:40:24;4.43;;;1.63;;
72904;SDS011;61048;52.162;4.516;2023-04-01T05:42:51;5.38;;;1.95;;
72904;SDS011;61048;52.162;4.516;2023-04-01T05:45:18;5.70;;;1.50;;
72904;SDS011;61048;52.162;4.516;2023-04-01T05:47:45;3.92;;;1.20;;
72904;SDS011;61048;52.162;4.516;2023-04-01T05:50:13;5.03;;;1.70;;
72904;SDS011;61048;52.162;4.516;2023-04-01T05:52:40;4.95;;;1.40;;
72904;SDS011;61048;52.162;4.516;2023-04-01T05:55:07;4.45;;;1.30;;
72904;SDS011;61048;52.162;4.516;2023-04-01T05:57:35;4.15;;;1.20;;
72904;SDS011;61048;52.162;4.516;2023-04-01T06:00:02;4.13;;;0.90;;
72904;SDS011;61048;52.162;4.516;2023-04-01T06:02:29;3.60;;;1.23;;
72904;SDS011;61048;52.162;4.516;2023-04-01T06:05:01;3.75;;;1.30;;
72904;SDS011;61048;52.162;4.516;2023-04-01T06:07:37;5.13;;;1.33;;
72904;SDS011;61048;52.162;4.516;2023-04-01T06:10:06;5.93;;;1.30;;
72904;SDS011;61048;52.162;4.516;2023-04-01T06:12:40;4.57;;;1.30;;
72904;SDS011;61048;52.162;4.516;2023-04-01T06:15:17;5.13;;;1.50;;
72904;SDS011;61048;52.162;4.516;2023-04-01T06:17:53;4.75;;;1.10;;
72904;SDS011;61048;52.162;4.516;2023-04-01T06:20:32;4.05;;;1.35;;
72904;SDS011;61048;52.162;4.516;2023-04-01T06:23:16;4.80;;;1.08;;
72904;SDS011;61048;52.162;4.516;2023-04-01T06:26:05;3.25;;;1.40;;
72904;SDS011;61048;52.162;4.516;2023-04-01T06:31:51;4.72;;;1.58;;
72904;SDS011;61048;52.162;4.516;2023-04-01T06:34:30;4.03;;;1.05;;
72904;SDS011;61048;52.162;4.516;2023-04-01T06:37:19;4.13;;;1.33;;
72904;SDS011;61048;52.162;4.516;2023-04-01T06:40:03;3.42;;;1.30;;
72904;SDS011;61048;52.162;4.516;2023-04-01T06:42:45;4.57;;;1.30;;
72904;SDS011;61048;52.162;4.516;2023-04-01T06:45:22;4.00;;;1.70;;
72904;SDS011;61048;52.162;4.516;2023-04-01T06:48:11;4.05;;;1.50;;
72904;SDS011;61048;52.162;4.516;2023-04-01T06:50:50;3.67;;;1.08;;
72904;SDS011;61048;52.162;4.516;2023-04-01T06:53:25;3.58;;;1.17;;
72904;SDS011;61048;52.162;4.516;2023-04-01T06:56:02;5.97;;;1.30;;
72904;SDS011;61048;52.162;4.516;2023-04-01T06:58:34;3.60;;;1.10;;
72904;SDS011;61048;52.162;4.516;2023-04-01T07:01:06;4.22;;;1.63;;
72904;SDS011;61048;52.162;4.516;2023-04-01T07:03:38;4.18;;;1.52;;
72904;SDS011;61048;52.162;4.516;2023-04-01T07:06:08;4.63;;;1.30;;
72904;SDS011;61048;52.162;4.516;2023-04-01T07:08:39;4.60;;;1.30;;
72904;SDS011;61048;52.162;4.516;2023-04-01T07:11:10;3.72;;;1.17;;
72904;SDS011;61048;52.162;4.516;2023-04-01T07:13:44;5.60;;;1.90;;
72904;SDS011;61048;52.162;4.516;2023-04-01T07:16:17;4.97;;;1.77;;
72904;SDS011;61048;52.162;4.516;2023-04-01T07:18:50;4.93;;;1.10;;
72904;SDS011;61048;52.162;4.516;2023-04-01T07:21:23;4.63;;;1.35;;
72904;SDS011;61048;52.162;4.516;2023-04-01T07:23:53;8.13;;;1.40;;
72904;SDS011;61048;52.162;4.516;2023-04-01T07:26:25;4.18;;;1.52;;
72904;SDS011;61048;52.162;4.516;2023-04-01T07:28:52;3.03;;;1.17;;
72904;SDS011;61048;52.162;4.516;2023-04-01T07:31:23;4.35;;;1.17;;
72904;SDS011;61048;52.162;4.516;2023-04-01T07:34:06;5.05;;;1.80;;
72904;SDS011;61048;52.162;4.516;2023-04-01T07:36:39;4.68;;;1.45;;
72904;SDS011;61048;52.162;4.516;2023-04-01T07:39:12;6.60;;;1.40;;
72904;SDS011;61048;52.162;4.516;2023-04-01T07:41:54;6.68;;;1.58;;
72904;SDS011;61048;52.162;4.516;2023-04-01T07:44:28;4.00;;;1.33;;
72904;SDS011;61048;52.162;4.516;2023-04-01T07:49:53;5.18;;;2.05;;
72904;SDS011;61048;52.162;4.516;2023-04-01T07:52:30;4.15;;;1.23;;
72904;SDS011;61048;52.162;4.516;2023-04-01T07:55:03;3.78;;;1.40;;
72904;SDS011;61048;52.162;4.516;2023-04-01T07:57:36;5.15;;;2.10;;
72904;SDS011;61048;52.162;4.516;2023-04-01T08:00:15;6.63;;;1.70;;
72904;SDS011;61048;52.162;4.516;2023-04-01T08:02:51;4.85;;;1.60;;
72904;SDS011;61048;52.162;4.516;2023-04-01T08:05:41;5.13;;;1.50;;
72904;SDS011;61048;52.162;4.516;2023-04-01T08:08:18;4.15;;;1.63;;
72904;SDS011;61048;52.162;4.516;2023-04-01T08:10:51;5.07;;;1.38;;
72904;SDS011;61048;52.162;4.516;2023-04-01T08:13:26;4.55;;;1.27;;
72904;SDS011;61048;52.162;4.516;2023-04-01T08:15:59;3.45;;;1.02;;
72904;SDS011;61048;52.162;4.516;2023-04-01T08:18:37;2.78;;;1.10;;
72904;SDS011;61048;52.162;4.516;2023-04-01T08:21:10;4.95;;;1.65;;
72904;SDS011;61048;52.162;4.516;2023-04-01T08:23:43;3.63;;;1.60;;
72904;SDS011;61048;52.162;4.516;2023-04-01T08:26:15;5.05;;;1.20;;
72904;SDS011;61048;52.162;4.516;2023-04-01T08:28:51;5.60;;;1.80;;
72904;SDS011;61048;52.162;4.516;2023-04-01T08:31:23;4.10;;;1.85;;
72904;SDS011;61048;52.162;4.516;2023-04-01T08:33:56;5.50;;;2.15;;
72904;SDS011;61048;52.162;4.516;2023-04-01T08:36:24;6.32;;;1.98;;
72904;SDS011;61048;52.162;4.516;2023-04-01T08:38:55;6.22;;;2.05;;
72904;SDS011;61048;52.162;4.516;2023-04-01T08:41:29;6.38;;;2.22;;
72904;SDS011;61048;52.162;4.516;2023-04-01T08:47:06;5.32;;;2.08;;
72904;SDS011;61048;52.162;4.516;2023-04-01T08:52:46;5.30;;;1.70;;
72904;SDS011;61048;52.162;4.516;2023-04-01T08:55:31;4.20;;;1.75;;
72904;SDS011;61048;52.162;4.516;2023-04-01T08:58:29;4.40;;;2.40;;
72904;SDS011;61048;52.162;4.516;2023-04-01T09:01:24;6.75;;;2.00;;
72904;SDS011;61048;52.162;4.516;2023-04-01T09:04:06;11.27;;;2.63;;
72904;SDS011;61048;52.162;4.516;2023-04-01T09:06:47;8.23;;;2.22;;
72904;SDS011;61048;52.162;4.516;2023-04-01T09:09:35;12.63;;;2.53;;
72904;SDS011;61048;52.162;4.516;2023-04-01T09:12:25;9.95;;;2.05;;
72904;SDS011;61048;52.162;4.516;2023-04-01T09:15:20;6.45;;;2.15;;
72904;SDS011;61048;52.162;4.516;2023-04-01T09:18:17;9.77;;;2.08;;
72904;SDS011;61048;52.162;4.516;2023-04-01T09:21:02;8.35;;;1.90;;
72904;SDS011;61048;52.162;4.516;2023-04-01T09:23:43;5.38;;;1.70;;
72904;SDS011;61048;52.162;4.516;2023-04-01T09:26:33;6.90;;;2.17;;
72904;SDS011;61048;52.162;4.516;2023-04-01T09:29:13;7.18;;;2.10;;
72904;SDS011;61048;52.162;4.516;2023-04-01T09:31:55;5.50;;;2.28;;
72904;SDS011;61048;52.162;4.516;2023-04-01T09:34:53;5.38;;;2.00;;
72904;SDS011;61048;52.162;4.516;2023-04-01T09:37:21;5.03;;;1.70;;
72904;SDS011;61048;52.162;4.516;2023-04-01T09:40:02;8.85;;;2.25;;
72904;SDS011;61048;52.162;4.516;2023-04-01T09:42:59;9.77;;;2.63;;
72904;SDS011;61048;52.162;4.516;2023-04-01T09:45:44;28.27;;;5.75;;
72904;SDS011;61048;52.162;4.516;2023-04-01T09:48:22;30.90;;;6.75;;
72904;SDS011;61048;52.162;4.516;2023-04-01T09:51:00;31.58;;;7.13;;
72904;SDS011;61048;52.162;4.516;2023-04-01T09:53:44;34.58;;;6.28;;
72904;SDS011;61048;52.162;4.516;2023-04-01T09:56:38;21.50;;;5.63;;
72904;SDS011;61048;52.162;4.516;2023-04-01T09:59:36;31.15;;;5.80;;
72904;SDS011;61048;52.162;4.516;2023-04-01T10:02:37;20.27;;;4.82;;
72904;SDS011;61048;52.162;4.516;2023-04-01T10:08:34;18.48;;;3.67;;
72904;SDS011;61048;52.162;4.516;2023-04-01T10:11:27;18.65;;;4.22;;
72904;SDS011;61048;52.162;4.516;2023-04-01T10:14:49;19.30;;;3.60;;
72904;SDS011;61048;52.162;4.516;2023-04-01T10:18:11;13.98;;;3.28;;
72904;SDS011;61048;52.162;4.516;2023-04-01T10:21:07;11.63;;;3.60;;
72904;SDS011;61048;52.162;4.516;2023-04-01T10:27:03;13.38;;;3.33;;
72904;SDS011;61048;52.162;4.516;2023-04-01T10:39:10;11.68;;;2.75;;
72904;SDS011;61048;52.162;4.516;2023-04-01T10:45:13;5.88;;;2.22;;
72904;SDS011;61048;52.162;4.516;2023-04-01T10:48:10;6.45;;;2.13;;
72904;SDS011;61048;52.162;4.516;2023-04-01T10:50:50;7.22;;;2.17;;
72904;SDS011;61048;52.162;4.516;2023-04-01T10:53:42;6.03;;;2.03;;
72904;SDS011;61048;52.162;4.516;2023-04-01T10:59:26;7.03;;;2.08;;
72904;SDS011;61048;52.162;4.516;2023-04-01T11:08:24;7.75;;;2.67;;
72904;SDS011;61048;52.162;4.516;2023-04-01T11:11:30;5.65;;;1.98;;
72904;SDS011;61048;52.162;4.516;2023-04-01T11:20:42;7.68;;;2.20;;
72904;SDS011;61048;52.162;4.516;2023-04-01T11:23:41;6.68;;;2.38;;
72904;SDS011;61048;52.162;4.516;2023-04-01T11:26:19;5.60;;;2.10;;
72904;SDS011;61048;52.162;4.516;2023-04-01T11:28:59;7.10;;;2.22;;
72904;SDS011;61048;52.162;4.516;2023-04-01T11:31:37;6.25;;;2.15;;
72904;SDS011;61048;52.162;4.516;2023-04-01T11:34:24;6.18;;;2.65;;
72904;SDS011;61048;52.162;4.516;2023-04-01T11:37:08;4.53;;;2.05;;
72904;SDS011;61048;52.162;4.516;2023-04-01T11:39:44;6.07;;;2.40;;
72904;SDS011;61048;52.162;4.516;2023-04-01T11:42:22;6.68;;;2.28;;
72904;SDS011;61048;52.162;4.516;2023-04-01T11:45:00;5.18;;;1.90;;
72904;SDS011;61048;52.162;4.516;2023-04-01T11:47:45;5.68;;;2.10;;
72904;SDS011;61048;52.162;4.516;2023-04-01T11:50:27;6.00;;;2.03;;
72904;SDS011;61048;52.162;4.516;2023-04-01T11:53:18;5.00;;;2.20;;
72904;SDS011;61048;52.162;4.516;2023-04-01T11:56:06;5.78;;;1.90;;
72904;SDS011;61048;52.162;4.516;2023-04-01T11:58:50;4.10;;;1.90;;
72904;SDS011;61048;52.162;4.516;2023-04-01T12:01:37;5.35;;;1.85;;
72904;SDS011;61048;52.162;4.516;2023-04-01T12:07:21;5.38;;;1.90;;
72904;SDS011;61048;52.162;4.516;2023-04-01T12:10:12;6.47;;;3.08;;
72904;SDS011;61048;52.162;4.516;2023-04-01T12:12:46;6.97;;;2.17;;
72904;SDS011;61048;52.162;4.516;2023-04-01T12:15:23;5.97;;;2.30;;
72904;SDS011;61048;52.162;4.516;2023-04-01T12:17:57;5.43;;;1.98;;
72904;SDS011;61048;52.162;4.516;2023-04-01T12:20:39;4.82;;;1.85;;
72904;SDS011;61048;52.162;4.516;2023-04-01T12:23:27;5.40;;;2.20;;
72904;SDS011;61048;52.162;4.516;2023-04-01T12:29:25;5.30;;;2.20;;
72904;SDS011;61048;52.162;4.516;2023-04-01T12:32:15;6.50;;;2.05;;
72904;SDS011;61048;52.162;4.516;2023-04-01T12:34:57;7.53;;;2.38;;
72904;SDS011;61048;52.162;4.516;2023-04-01T12:37:34;5.78;;;2.25;;
72904;SDS011;61048;52.162;4.516;2023-04-01T12:40:17;5.65;;;1.75;;
72904;SDS011;61048;52.162;4.516;2023-04-01T12:43:07;6.57;;;2.00;;
72904;SDS011;61048;52.162;4.516;2023-04-01T12:45:54;7.85;;;2.08;;
72904;SDS011;61048;52.162;4.516;2023-04-01T12:51:39;6.45;;;1.90;;
72904;SDS011;61048;52.162;4.516;2023-04-01T12:54:33;5.65;;;1.88;;
72904;SDS011;61048;52.162;4.516;2023-04-01T12:57:28;5.20;;;1.95;;
72904;SDS011;61048;52.162;4.516;2023-04-01T13:00:13;6.45;;;1.70;;
72904;SDS011;61048;52.162;4.516;2023-04-01T13:02:56;5.53;;;1.27;;
72904;SDS011;61048;52.162;4.516;2023-04-01T13:05:39;6.47;;;1.63;;
72904;SDS011;61048;52.162;4.516;2023-04-01T13:08:31;5.07;;;1.48;;
72904;SDS011;61048;52.162;4.516;2023-04-01T13:11:09;6.15;;;1.45;;
72904;SDS011;61048;52.162;4.516;2023-04-01T13:16:45;5.25;;;1.25;;
72904;SDS011;61048;52.162;4.516;2023-04-01T13:19:21;4.45;;;1.25;;
72904;SDS011;61048;52.162;4.516;2023-04-01T13:21:54;4.07;;;1.20;;
72904;SDS011;61048;52.162;4.516;2023-04-01T13:24:35;5.80;;;1.20;;
72904;SDS011;61048;52.162;4.516;2023-04-01T13:27:09;3.58;;;0.98;;
72904;SDS011;61048;52.162;4.516;2023-04-01T13:29:44;5.30;;;1.10;;
72904;SDS011;61048;52.162;4.516;2023-04-01T13:32:23;4.85;;;1.20;;
72904;SDS011;61048;52.162;4.516;2023-04-01T13:35:04;5.05;;;1.00;;
72904;SDS011;61048;52.162;4.516;2023-04-01T13:37:45;6.45;;;1.35;;
72904;SDS011;61048;52.162;4.516;2023-04-01T13:40:25;6.82;;;1.17;;
72904;SDS011;61048;52.162;4.516;2023-04-01T13:43:01;4.90;;;1.48;;
72904;SDS011;61048;52.162;4.516;2023-04-01T13:45:33;6.82;;;0.93;;
72904;SDS011;61048;52.162;4.516;2023-04-01T13:50:58;4.45;;;0.93;;
72904;SDS011;61048;52.162;4.516;2023-04-01T13:53:51;5.15;;;0.90;;
72904;SDS011;61048;52.162;4.516;2023-04-01T13:56:45;6.10;;;1.10;;
72904;SDS011;61048;52.162;4.516;2023-04-01T13:59:29;7.65;;;0.95;;
72904;SDS011;61048;52.162;4.516;2023-04-01T14:02:27;7.72;;;1.40;;
72904;SDS011;61048;52.162;4.516;2023-04-01T14:05:24;23.10;;;3.83;;
72904;SDS011;61048;52.162;4.516;2023-04-01T14:08:10;17.45;;;3.55;;
72904;SDS011;61048;52.162;4.516;2023-04-01T14:10:48;21.27;;;3.78;;
72904;SDS011;61048;52.162;4.516;2023-04-01T14:13:26;19.02;;;3.50;;
72904;SDS011;61048;52.162;4.516;2023-04-01T14:19:08;11.80;;;2.53;;
72904;SDS011;61048;52.162;4.516;2023-04-01T14:21:51;20.70;;;3.72;;
72904;SDS011;61048;52.162;4.516;2023-04-01T14:24:36;17.23;;;3.05;;
72904;SDS011;61048;52.162;4.516;2023-04-01T14:27:41;13.80;;;2.95;;
72904;SDS011;61048;52.162;4.516;2023-04-01T14:30:19;16.13;;;2.40;;
72904;SDS011;61048;52.162;4.516;2023-04-01T14:32:56;15.40;;;2.58;;
72904;SDS011;61048;52.162;4.516;2023-04-01T14:35:33;16.90;;;2.90;;
72904;SDS011;61048;52.162;4.516;2023-04-01T14:38:06;11.38;;;2.42;;
72904;SDS011;61048;52.162;4.516;2023-04-01T14:40:52;19.88;;;2.80;;
72904;SDS011;61048;52.162;4.516;2023-04-01T14:46:24;13.75;;;3.00;;
72904;SDS011;61048;52.162;4.516;2023-04-01T14:49:14;9.48;;;2.53;;
72904;SDS011;61048;52.162;4.516;2023-04-01T14:51:47;10.07;;;2.33;;
72904;SDS011;61048;52.162;4.516;2023-04-01T14:54:17;9.50;;;2.17;;
72904;SDS011;61048;52.162;4.516;2023-04-01T14:56:49;11.20;;;2.72;;
72904;SDS011;61048;52.162;4.516;2023-04-01T14:59:25;14.90;;;2.25;;
72904;SDS011;61048;52.162;4.516;2023-04-01T15:01:57;9.50;;;2.33;;
72904;SDS011;61048;52.162;4.516;2023-04-01T15:04:37;12.18;;;2.58;;
72904;SDS011;61048;52.162;4.516;2023-04-01T15:07:24;12.13;;;2.35;;
72904;SDS011;61048;52.162;4.516;2023-04-01T15:10:12;11.73;;;2.03;;
72904;SDS011;61048;52.162;4.516;2023-04-01T15:12:52;10.00;;;2.42;;
72904;SDS011;61048;52.162;4.516;2023-04-01T15:15:44;9.75;;;2.05;;
72904;SDS011;61048;52.162;4.516;2023-04-01T15:18:30;7.28;;;1.80;;
72904;SDS011;61048;52.162;4.516;2023-04-01T15:21:16;8.43;;;1.92;;
72904;SDS011;61048;52.162;4.516;2023-04-01T15:23:52;11.80;;;2.60;;
72904;SDS011;61048;52.162;4.516;2023-04-01T15:29:41;9.43;;;2.08;;
72904;SDS011;61048;52.162;4.516;2023-04-01T15:32:16;7.88;;;1.60;;
72904;SDS011;61048;52.162;4.516;2023-04-01T15:34:51;7.35;;;1.80;;
72904;SDS011;61048;52.162;4.516;2023-04-01T15:37:28;6.80;;;1.60;;
72904;SDS011;61048;52.162;4.516;2023-04-01T15:40:03;4.53;;;1.55;;
72904;SDS011;61048;52.162;4.516;2023-04-01T15:42:45;5.28;;;1.65;;
72904;SDS011;61048;52.162;4.516;2023-04-01T15:45:26;5.75;;;1.80;;
72904;SDS011;61048;52.162;4.516;2023-04-01T15:48:06;4.10;;;2.25;;
72904;SDS011;61048;52.162;4.516;2023-04-01T15:53:54;5.38;;;2.05;;
72904;SDS011;61048;52.162;4.516;2023-04-01T15:56:45;5.00;;;1.88;;
72904;SDS011;61048;52.162;4.516;2023-04-01T15:59:24;4.82;;;1.88;;
72904;SDS011;61048;52.162;4.516;2023-04-01T16:02:08;6.10;;;1.63;;
72904;SDS011;61048;52.162;4.516;2023-04-01T16:04:48;5.75;;;2.17;;
72904;SDS011;61048;52.162;4.516;2023-04-01T16:07:36;5.20;;;1.85;;
72904;SDS011;61048;52.162;4.516;2023-04-01T16:10:19;3.55;;;1.70;;
72904;SDS011;61048;52.162;4.516;2023-04-01T16:13:03;3.92;;;1.80;;
72904;SDS011;61048;52.162;4.516;2023-04-01T16:15:44;4.07;;;1.52;;
72904;SDS011;61048;52.162;4.516;2023-04-01T16:18:26;4.15;;;1.45;;
72904;SDS011;61048;52.162;4.516;2023-04-01T16:21:06;3.05;;;1.70;;
72904;SDS011;61048;52.162;4.516;2023-04-01T16:23:40;4.28;;;1.52;;
72904;SDS011;61048;52.162;4.516;2023-04-01T16:26:13;3.83;;;1.50;;
72904;SDS011;61048;52.162;4.516;2023-04-01T16:28:48;3.55;;;1.42;;
72904;SDS011;61048;52.162;4.516;2023-04-01T16:31:25;4.43;;;1.45;;
72904;SDS011;61048;52.162;4.516;2023-04-01T16:33:58;2.85;;;1.45;;
72904;SDS011;61048;52.162;4.516;2023-04-01T16:36:32;4.07;;;1.17;;
72904;SDS011;61048;52.162;4.516;2023-04-01T16:42:08;2.55;;;1.50;;
72904;SDS011;61048;52.162;4.516;2023-04-01T16:44:45;2.50;;;1.40;;
72904;SDS011;61048;52.162;4.516;2023-04-01T16:47:17;3.30;;;1.40;;
72904;SDS011;61048;52.162;4.516;2023-04-01T16:49:50;3.50;;;1.25;;
72904;SDS011;61048;52.162;4.516;2023-04-01T16:52:30;3.05;;;1.10;;
72904;SDS011;61048;52.162;4.516;2023-04-01T16:55:03;2.80;;;1.23;;
72904;SDS011;61048;52.162;4.516;2023-04-01T16:57:43;4.18;;;1.50;;
72904;SDS011;61048;52.162;4.516;2023-04-01T17:00:16;3.78;;;1.30;;